Time;durP1;ratioP1;P1;durP2;ratioP2;P2;SDS_P1;SDS_P2;PMS_P1;PMS_P2;Temp;Humidity;BMP_temperature;BMP_pressure;BME280_temperature;BME280_humidity;BME280_pressure;Samples;Min_cycle;Max_cycle;Signal;HPM_P1;HPM_P2
2022/01/04 00:02:23;;;;;;;6.15;3.78;;;;;;;7.98;89.62;100132.09;4978057;28;20042;-76
2022/01/04 00:04:48;;;;;;;6.25;3.90;;;;;;;7.98;89.57;100133.94;4987591;28;20018;-73
2022/01/04 00:07:14;;;;;;;4.88;3.83;;;;;;;7.99;89.52;100130.25;4979476;28;20030;-78
2022/01/04 00:09:42;;;;;;;5.75;3.45;;;;;;;7.97;89.62;100129.47;4987247;28;20475;-72
2022/01/04 00:14:53;;;;;;;7.97;3.95;;;;;;;7.93;89.90;100120.75;4987135;28;20393;-76
2022/01/04 00:17:19;;;;;;;6.22;3.60;;;;;;;7.90;89.94;100119.09;4979491;28;20035;-74
2022/01/04 00:19:44;;;;;;;5.75;3.47;;;;;;;7.91;90.00;100118.13;4983658;28;20113;-80
2022/01/04 00:22:09;;;;;;;8.23;3.95;;;;;;;7.89;89.67;100114.69;4982552;28;20034;-73
2022/01/04 00:24:36;;;;;;;9.48;3.80;;;;;;;7.90;89.56;100105.56;4987441;28;20042;-74
2022/01/04 00:27:01;;;;;;;10.10;3.65;;;;;;;7.88;89.75;100102.13;4976155;28;20050;-79
2022/01/04 00:29:27;;;;;;;8.02;3.38;;;;;;;7.89;90.08;100087.59;4973825;28;20513;-75
2022/01/04 00:31:52;;;;;;;5.78;3.38;;;;;;;7.87;89.42;100073.28;4979107;28;20113;-76
2022/01/04 00:34:17;;;;;;;5.47;3.88;;;;;;;7.87;89.57;100067.00;4981060;28;20497;-79
2022/01/04 00:36:43;;;;;;;6.00;3.42;;;;;;;7.89;89.57;100070.47;4985316;28;20030;-75
2022/01/04 00:39:08;;;;;;;4.93;3.40;;;;;;;7.86;89.43;100060.72;4976983;28;20085;-76
2022/01/04 00:41:34;;;;;;;3.90;3.20;;;;;;;7.85;89.54;100059.00;4976284;28;20026;-78
2022/01/04 00:43:59;;;;;;;6.53;3.20;;;;;;;7.80;89.52;100050.34;4975145;28;20030;-80
2022/01/04 00:46:24;;;;;;;4.78;3.08;;;;;;;7.81;89.46;100056.63;4983245;28;20026;-73
2022/01/04 00:51:34;;;;;;;6.15;3.30;;;;;;;7.78;89.86;100041.47;4986596;28;20084;-78
2022/01/04 00:53:59;;;;;;;5.88;3.45;;;;;;;7.77;89.80;100039.75;4987023;28;20441;-75
2022/01/04 00:56:24;;;;;;;5.57;3.25;;;;;;;7.76;89.95;100042.56;4985234;28;20023;-76
2022/01/04 00:58:50;;;;;;;4.78;3.70;;;;;;;7.76;90.09;100039.88;4987584;28;20030;-75
2022/01/04 01:01:15;;;;;;;4.80;3.33;;;;;;;7.75;89.97;100038.16;4983629;28;20402;-78
2022/01/04 01:03:41;;;;;;;9.23;3.30;;;;;;;7.74;90.01;100023.75;4986874;28;20038;-72
2022/01/04 01:06:07;;;;;;;6.60;3.65;;;;;;;7.73;90.09;100023.84;4982851;28;20037;-75
2022/01/04 01:08:33;;;;;;;6.85;3.70;;;;;;;7.68;90.09;100016.91;4980128;28;20113;-73
2022/01/04 01:10:58;;;;;;;5.55;3.75;;;;;;;7.69;90.50;100023.19;4982044;28;20117;-76
2022/01/04 01:13:23;;;;;;;5.90;3.47;;;;;;;7.64;90.33;100018.13;4982184;28;20517;-73
2022/01/04 01:15:49;;;;;;;7.60;3.55;;;;;;;7.62;90.08;100019.22;4979085;28;20441;-79
2022/01/04 01:18:16;;;;;;;5.45;3.47;;;;;;;7.64;90.26;100018.13;4975406;28;20041;-75
2022/01/04 01:20:42;;;;;;;5.13;3.47;;;;;;;7.66;89.86;100013.47;4982397;28;20026;-73
2022/01/04 01:23:07;;;;;;;5.22;3.60;;;;;;;7.65;90.50;100014.47;4985329;28;20057;-76
2022/01/04 01:25:33;;;;;;;6.35;3.30;;;;;;;7.66;90.58;100016.19;4986237;28;20517;-77
2022/01/04 01:27:58;;;;;;;6.38;3.20;;;;;;;7.65;90.33;100006.34;4983767;28;20038;-75
2022/01/04 01:30:25;;;;;;;7.85;3.50;;;;;;;7.62;90.45;99993.00;4980445;28;20118;-76
2022/01/04 01:32:51;;;;;;;5.45;3.70;;;;;;;7.65;90.37;100000.91;4978589;28;20026;-76
2022/01/04 01:35:16;;;;;;;4.57;3.67;;;;;;;7.64;90.71;99999.16;4980666;28;20056;-79
2022/01/04 01:37:42;;;;;;;5.85;3.83;;;;;;;7.62;90.26;99992.16;4986366;28;20085;-76
2022/01/04 01:40:08;;;;;;;6.78;3.72;;;;;;;7.63;90.00;99991.16;4984235;28;20398;-76
2022/01/04 01:42:33;;;;;;;6.38;4.10;;;;;;;7.62;90.48;99987.59;4982949;28;20035;-73
2022/01/04 01:44:58;;;;;;;5.35;3.95;;;;;;;7.58;90.18;99980.69;4984397;28;20030;-76
2022/01/04 01:47:24;;;;;;;7.90;3.88;;;;;;;7.56;90.37;99968.25;4979562;28;20354;-76
2022/01/04 01:49:49;;;;;;;6.90;4.10;;;;;;;7.56;90.63;99963.72;4974748;28;20509;-80
2022/01/04 01:52:15;;;;;;;7.90;4.20;;;;;;;7.55;90.26;99972.78;4982311;28;20033;-79
2022/01/04 01:54:41;;;;;;;7.97;4.60;;;;;;;7.57;90.42;99970.84;4988131;28;20026;-75
2022/01/04 01:57:06;;;;;;;10.80;4.40;;;;;;;7.54;90.12;99957.53;4984866;28;20035;-75
2022/01/04 01:59:31;;;;;;;6.57;4.35;;;;;;;7.52;90.38;99967.63;4987733;28;20038;-80
2022/01/04 02:01:56;;;;;;;8.13;4.53;;;;;;;7.53;90.04;99982.88;4978069;28;20099;-77
2022/01/04 02:04:22;;;;;;;5.38;4.28;;;;;;;7.53;90.68;99965.78;4985233;28;20030;-78
2022/01/04 02:06:47;;;;;;;8.90;4.22;;;;;;;7.51;90.42;99959.63;4989850;28;20014;-72
2022/01/04 02:09:12;;;;;;;9.13;4.40;;;;;;;7.51;90.54;99956.91;4972660;28;20038;-73
2022/01/04 02:11:39;;;;;;;6.50;4.13;;;;;;;7.52;90.31;99950.50;4987152;28;20088;-75
2022/01/04 02:14:04;;;;;;;8.10;4.25;;;;;;;7.51;90.67;99949.66;4983758;28;20050;-73
2022/01/04 02:16:31;;;;;;;8.13;4.32;;;;;;;7.50;90.58;99952.44;4989953;28;20030;-73
2022/01/04 02:19:05;;;;;;;9.20;4.70;;;;;;;7.51;90.46;99941.53;4980727;28;20042;-75
2022/01/04 02:21:32;;;;;;;7.72;4.68;;;;;;;7.49;90.42;99927.22;4988279;28;20157;-79
2022/01/04 02:23:58;;;;;;;7.20;4.30;;;;;;;7.48;90.37;99936.34;4981247;28;20465;-75
2022/01/04 02:26:23;;;;;;;9.43;4.45;;;;;;;7.47;90.30;99923.78;4983330;28;20031;-75
2022/01/04 02:28:50;;;;;;;8.10;4.45;;;;;;;7.47;90.47;99923.78;4978361;28;20066;-80
2022/01/04 02:31:16;;;;;;;9.05;4.40;;;;;;;7.45;90.39;99919.47;4988232;28;20034;-76
2022/01/04 02:33:41;;;;;;;7.10;4.43;;;;;;;7.46;90.54;99924.78;4981019;28;20029;-79
2022/01/04 02:36:06;;;;;;;8.80;4.28;;;;;;;7.44;90.32;99917.75;4986351;28;20030;-75
2022/01/04 02:38:33;;;;;;;9.52;4.88;;;;;;;7.45;90.25;99919.47;4982141;28;20466;-79
2022/01/04 02:40:59;;;;;;;7.30;4.22;;;;;;;7.43;90.38;99916.88;4974503;28;20058;-71
2022/01/04 02:43:24;;;;;;;5.85;4.22;;;;;;;7.43;90.28;99913.31;4982967;28;20030;-74
2022/01/04 02:45:49;;;;;;;9.48;4.32;;;;;;;7.40;90.61;99907.13;4988366;28;20533;-76
2022/01/04 02:48:15;;;;;;;7.45;4.47;;;;;;;7.41;90.56;99894.47;4979922;28;20045;-79
2022/01/04 02:50:41;;;;;;;9.35;4.88;;;;;;;7.40;90.30;99900.84;4988904;28;20027;-76
2022/01/04 02:53:06;;;;;;;9.45;4.80;;;;;;;7.39;90.32;99891.88;4983878;28;20042;-76
2022/01/04 02:55:31;;;;;;;9.85;4.53;;;;;;;7.36;90.50;99878.56;4982073;28;20093;-75
2022/01/04 02:57:57;;;;;;;9.05;4.18;;;;;;;7.36;90.46;99888.53;4983912;28;20034;-75
2022/01/04 03:00:25;;;;;;;11.30;6.25;;;;;;;7.37;90.69;99876.75;4985258;28;20014;-76
2022/01/04 03:02:51;;;;;;;7.80;4.38;;;;;;;7.35;90.75;99878.69;4979942;28;20049;-73
2022/01/04 03:05:16;;;;;;;10.38;4.75;;;;;;;7.29;90.70;99855.69;4984679;28;20022;-72
2022/01/04 03:07:41;;;;;;;10.48;5.30;;;;;;;7.34;90.85;99866.16;4985459;28;20026;-76
2022/01/04 03:10:07;;;;;;;7.70;4.72;;;;;;;7.34;90.77;99880.53;4983035;28;20029;-75
2022/01/04 03:12:34;;;;;;;12.93;6.40;;;;;;;7.34;90.58;99869.72;4988466;28;20459;-75
2022/01/04 03:15:00;;;;;;;11.52;5.03;;;;;;;7.32;90.62;99863.56;4981922;28;20029;-75
2022/01/04 03:17:25;;;;;;;11.30;5.35;;;;;;;7.33;90.67;99859.88;4982607;28;20398;-74
2022/01/04 03:19:50;;;;;;;9.02;4.70;;;;;;;7.33;90.78;99854.47;4981877;28;20030;-77
2022/01/04 03:22:16;;;;;;;9.70;4.65;;;;;;;7.33;90.54;99843.66;4986342;28;20049;-79
2022/01/04 03:24:41;;;;;;;8.88;4.78;;;;;;;7.30;90.92;99827.63;4980184;28;20028;-78
2022/01/04 03:27:06;;;;;;;11.27;4.88;;;;;;;7.32;90.23;99831.09;4979494;28;20030;-79
2022/01/04 03:29:32;;;;;;;8.80;4.32;;;;;;;7.30;90.55;99819.53;4983271;28;20027;-78
2022/01/04 03:31:58;;;;;;;10.75;4.80;;;;;;;7.31;90.58;99820.38;4983564;28;20058;-75
2022/01/04 03:34:24;;;;;;;9.55;4.53;;;;;;;7.28;90.48;99817.94;4983720;28;20034;-73
2022/01/04 03:36:49;;;;;;;5.75;3.88;;;;;;;7.29;90.17;99808.81;4987839;28;20553;-80
2022/01/04 03:39:15;;;;;;;9.80;4.70;;;;;;;7.27;90.47;99805.34;4986009;28;20034;-72
2022/01/04 03:41:43;;;;;;;7.88;4.38;;;;;;;7.27;90.80;99797.25;4985359;28;20052;-75
2022/01/04 03:44:10;;;;;;;7.78;4.13;;;;;;;7.26;90.29;99790.97;4975868;28;20137;-75
2022/01/04 03:46:37;;;;;;;9.93;4.30;;;;;;;7.24;90.20;99782.13;4978316;28;20509;-78
2022/01/04 03:49:04;;;;;;;10.93;4.85;;;;;;;7.23;90.56;99774.09;4985680;28;20030;-72
2022/01/04 03:51:29;;;;;;;9.35;3.90;;;;;;;7.21;90.64;99766.13;4985592;28;20023;-76
2022/01/04 03:53:55;;;;;;;8.50;3.97;;;;;;;7.20;90.58;99764.41;4982345;28;20226;-76
2022/01/04 03:56:20;;;;;;;12.18;4.22;;;;;;;7.21;90.75;99771.53;4987342;28;20034;-75
2022/01/04 03:58:45;;;;;;;10.38;4.72;;;;;;;7.19;90.38;99759.09;4983903;28;20397;-75
2022/01/04 04:01:11;;;;;;;7.28;3.97;;;;;;;7.19;90.83;99761.81;4980668;28;20085;-72
2022/01/04 04:03:36;;;;;;;7.43;4.15;;;;;;;7.18;90.62;99758.25;4983536;28;20022;-78
2022/01/04 04:06:02;;;;;;;6.50;4.03;;;;;;;7.16;90.59;99744.81;4988296;28;20104;-73
2022/01/04 04:08:28;;;;;;;8.98;4.50;;;;;;;7.19;90.46;99745.59;4979814;28;20080;-75
2022/01/04 04:10:53;;;;;;;7.72;4.65;;;;;;;7.18;90.89;99735.72;4986466;28;20038;-76
2022/01/04 04:13:19;;;;;;;10.38;4.50;;;;;;;7.17;90.43;99740.28;4982378;28;20069;-72
2022/01/04 04:15:44;;;;;;;10.80;4.15;;;;;;;7.17;90.86;99734.88;4979909;28;20454;-72
2022/01/04 04:18:10;;;;;;;12.13;4.75;;;;;;;7.18;90.92;99727.59;4979914;28;20657;-78
2022/01/04 04:20:37;;;;;;;10.23;5.55;;;;;;;7.15;90.93;99718.75;4987426;28;20030;-75
2022/01/04 04:23:03;;;;;;;10.57;4.28;;;;;;;7.18;90.92;99716.78;4987107;28;20475;-76
2022/01/04 04:25:28;;;;;;;7.68;4.70;;;;;;;7.16;90.83;99709.66;4979898;28;20145;-75
2022/01/04 04:27:54;;;;;;;9.65;5.68;;;;;;;7.18;90.72;99708.69;4984259;28;20563;-78
2022/01/04 04:30:19;;;;;;;9.70;4.50;;;;;;;7.18;91.05;99714.09;4985396;28;20045;-75
2022/01/04 04:32:44;;;;;;;9.82;5.57;;;;;;;7.17;90.63;99710.53;4972243;28;20038;-72
2022/01/04 04:35:10;;;;;;;9.07;5.35;;;;;;;7.18;90.85;99714.09;4986035;28;20026;-73
2022/01/04 04:37:35;;;;;;;11.32;4.63;;;;;;;7.18;90.65;99711.38;4986883;28;20157;-76
2022/01/04 04:40:00;;;;;;;8.85;5.25;;;;;;;7.18;90.76;99711.38;4974617;28;20034;-78
2022/01/04 04:42:26;;;;;;;10.52;5.78;;;;;;;7.17;90.65;99713.22;4974732;28;20432;-75
2022/01/04 04:44:51;;;;;;;9.48;5.40;;;;;;;7.16;90.89;99706.97;4980433;28;20031;-75
2022/01/04 04:47:16;;;;;;;11.68;6.00;;;;;;;7.17;91.08;99705.09;4973561;28;20058;-79
2022/01/04 04:49:42;;;;;;;13.88;5.93;;;;;;;7.15;90.86;99707.94;4985148;28;20109;-75
2022/01/04 04:52:07;;;;;;;10.75;5.07;;;;;;;7.16;91.06;99709.66;4983703;28;20081;-77
2022/01/04 04:54:32;;;;;;;10.60;5.60;;;;;;;7.15;90.61;99715.19;4987263;28;20100;-75
2022/01/04 04:56:58;;;;;;;11.30;6.75;;;;;;;7.16;91.17;99709.66;4977280;28;20574;-78
2022/01/04 04:59:23;;;;;;;13.38;6.05;;;;;;;7.15;90.70;99716.06;4986868;28;20109;-72
2022/01/04 05:01:48;;;;;;;8.95;5.35;;;;;;;7.14;90.62;99705.38;4984951;28;20441;-75
2022/01/04 05:04:14;;;;;;;10.63;5.72;;;;;;;7.12;90.95;99702.75;4975966;28;20058;-75
2022/01/04 05:06:39;;;;;;;14.93;5.88;;;;;;;7.14;90.78;99705.38;4973746;28;20061;-75
2022/01/04 05:09:05;;;;;;;14.65;6.15;;;;;;;7.12;91.08;99694.66;4987690;28;20070;-76
2022/01/04 05:11:30;;;;;;;12.00;5.55;;;;;;;7.11;90.84;99698.34;4976536;28;20114;-75
2022/01/04 05:13:56;;;;;;;11.98;6.13;;;;;;;7.13;91.07;99712.63;4986311;28;20537;-71
2022/01/04 05:16:21;;;;;;;13.65;5.75;;;;;;;7.13;90.83;99703.63;4973217;28;20030;-78
2022/01/04 05:18:47;;;;;;;14.02;6.20;;;;;;;7.13;90.75;99690.09;4977321;28;20048;-75
2022/01/04 05:21:12;;;;;;;13.27;6.15;;;;;;;7.12;90.69;99685.66;4982811;28;20030;-78
2022/01/04 05:23:37;;;;;;;13.93;6.18;;;;;;;7.12;90.96;99691.09;4978767;28;20034;-78
2022/01/04 05:26:03;;;;;;;14.48;5.85;;;;;;;7.09;91.21;99673.25;4985949;28;20037;-72
2022/01/04 05:28:28;;;;;;;13.88;6.10;;;;;;;7.10;91.31;99677.69;4985890;28;20113;-75
2022/01/04 05:30:53;;;;;;;15.50;8.50;;;;;;;7.11;91.20;99675.84;4981761;28;20029;-78
2022/01/04 05:33:18;;;;;;;14.15;6.53;;;;;;;7.10;91.28;99668.72;4972146;28;20390;-76
2022/01/04 05:35:44;;;;;;;16.08;6.93;;;;;;;7.09;91.38;99672.41;4986500;28;20034;-76
2022/01/04 05:38:09;;;;;;;17.00;6.68;;;;;;;7.07;91.42;99656.28;4985238;28;20523;-76
2022/01/04 05:40:34;;;;;;;15.90;7.28;;;;;;;7.04;91.93;99647.53;4988071;28;20057;-79
2022/01/04 05:43:00;;;;;;;19.27;7.10;;;;;;;7.02;92.13;99650.38;4981586;28;20039;-73
2022/01/04 05:45:26;;;;;;;15.35;8.27;;;;;;;7.00;91.91;99649.63;4987338;28;20062;-75
2022/01/04 05:47:51;;;;;;;14.15;5.95;;;;;;;7.00;92.39;99649.63;4975672;28;20406;-75
2022/01/04 05:50:16;;;;;;;15.95;7.40;;;;;;;7.00;92.20;99644.22;4987603;28;20486;-74
2022/01/04 05:52:42;;;;;;;14.90;7.28;;;;;;;6.99;92.23;99639.78;4983112;28;20031;-79
2022/01/04 05:55:08;;;;;;;14.75;7.07;;;;;;;6.98;92.34;99637.19;4987459;28;20109;-75
2022/01/04 05:57:33;;;;;;;16.10;7.18;;;;;;;6.95;92.40;99640.13;4977313;28;20567;-74
2022/01/04 05:59:59;;;;;;;16.10;7.20;;;;;;;6.97;92.48;99639.03;4987786;28;20062;-79
2022/01/04 06:02:25;;;;;;;17.05;7.10;;;;;;;6.95;92.63;99645.53;4984294;28;20027;-79
2022/01/04 06:04:50;;;;;;;14.23;7.80;;;;;;;6.95;92.74;99641.03;4985807;28;20038;-79
2022/01/04 06:07:15;;;;;;;15.13;6.82;;;;;;;6.94;92.60;99641.13;4986879;28;20023;-78
2022/01/04 06:09:47;;;;;;;16.27;7.72;;;;;;;6.94;92.58;99641.13;4985222;28;20030;-72
2022/01/04 06:14:50;;;;;;;15.75;8.10;;;;;;;6.94;92.74;99633.88;4985673;28;20033;-76
2022/01/04 06:15:13;;;;;;;12.80;7.20;;;;;;;6.94;92.94;99633.00;4982091;28;20050;-75
2022/01/04 06:17:41;;;;;;;13.50;6.80;;;;;;;6.94;92.66;99633.88;4984070;28;20105;-78
2022/01/04 06:20:12;;;;;;;14.85;7.03;;;;;;;6.94;92.86;99630.31;4988674;28;20030;-76
2022/01/04 06:22:38;;;;;;;18.40;7.85;;;;;;;6.92;92.88;99627.72;4974844;28;20402;-80
2022/01/04 06:25:05;;;;;;;14.68;8.27;;;;;;;6.92;93.27;99622.31;4989954;28;20029;-77
2022/01/04 06:27:30;;;;;;;13.40;7.03;;;;;;;6.89;93.46;99618.00;5008522;28;20510;-75
2022/01/04 06:29:56;;;;;;;13.48;7.25;;;;;;;6.90;93.37;99622.44;4986578;28;20038;-75
2022/01/04 06:32:23;;;;;;;14.85;7.70;;;;;;;6.92;92.89;99629.56;4976399;28;20014;-73
2022/01/04 06:34:48;;;;;;;15.02;7.90;;;;;;;6.90;93.27;99630.56;4979932;28;20026;-73
2022/01/04 06:37:14;;;;;;;15.45;6.90;;;;;;;6.92;93.17;99633.13;4988930;28;20092;-76
2022/01/04 06:39:39;;;;;;;13.95;7.47;;;;;;;6.93;92.77;99629.44;4981597;28;20506;-75
2022/01/04 06:42:05;;;;;;;13.95;7.57;;;;;;;6.94;93.38;99622.19;4988774;28;20113;-75
2022/01/04 06:44:31;;;;;;;12.27;7.47;;;;;;;6.95;93.16;99627.50;4976032;28;20480;-76
2022/01/04 06:46:57;;;;;;;15.65;7.30;;;;;;;6.94;93.18;99635.72;4980909;28;20034;-76
2022/01/04 06:49:22;;;;;;;13.10;6.80;;;;;;;6.92;92.88;99616.91;4971971;28;20458;-75
2022/01/04 06:51:48;;;;;;;14.07;7.53;;;;;;;6.93;93.00;99612.34;4982662;28;20026;-80
2022/01/04 06:54:16;;;;;;;14.27;7.70;;;;;;;6.95;93.17;99608.56;4985421;28;20113;-76
2022/01/04 06:56:42;;;;;;;13.88;6.82;;;;;;;6.95;92.85;99603.16;4975967;28;20080;-76
2022/01/04 06:59:08;;;;;;;17.08;7.68;;;;;;;6.96;92.84;99604.03;4986635;28;20030;-76
2022/01/04 07:01:34;;;;;;;11.98;7.07;;;;;;;6.95;93.15;99600.47;4988097;28;20536;-79
2022/01/04 07:04:00;;;;;;;15.77;8.25;;;;;;;6.93;93.06;99596.13;4983257;28;20061;-76
2022/01/04 07:06:26;;;;;;;15.90;8.70;;;;;;;6.94;93.21;99598.72;4988552;28;20027;-75
2022/01/04 07:08:52;;;;;;;14.60;7.68;;;;;;;6.92;93.13;99581.75;4975757;28;20030;-77
2022/01/04 07:11:17;;;;;;;17.27;8.32;;;;;;;6.93;92.97;99580.78;4981026;28;20030;-72
2022/01/04 07:13:43;;;;;;;16.15;8.48;;;;;;;6.93;93.00;99563.69;4988681;28;20050;-75
2022/01/04 07:16:08;;;;;;;15.63;8.20;;;;;;;6.91;93.15;99566.53;4981251;28;20037;-76
2022/01/04 07:18:33;;;;;;;15.55;7.97;;;;;;;6.93;93.40;99579.91;4978825;28;20026;-78
2022/01/04 07:20:59;;;;;;;19.00;8.20;;;;;;;6.93;93.42;99577.22;4985544;28;20387;-75
2022/01/04 07:23:24;;;;;;;14.55;7.63;;;;;;;6.92;93.06;99570.94;4985034;28;20684;-76
2022/01/04 07:25:51;;;;;;;17.25;8.90;;;;;;;6.91;93.35;99561.13;4977824;28;20030;-75
2022/01/04 07:28:17;;;;;;;13.75;7.38;;;;;;;6.88;93.18;99558.66;4987442;28;20022;-73
2022/01/04 07:30:42;;;;;;;15.95;8.27;;;;;;;6.86;93.57;99557.91;4985517;28;20026;-76
2022/01/04 07:33:07;;;;;;;15.95;7.95;;;;;;;6.84;92.99;99551.75;4973856;28;20023;-75
2022/01/04 07:35:33;;;;;;;16.05;8.88;;;;;;;6.83;93.07;99531.97;4986481;28;20026;-76
2022/01/04 07:37:58;;;;;;;15.18;7.85;;;;;;;6.83;93.47;99531.13;4979662;28;20026;-75
2022/01/04 07:40:24;;;;;;;18.33;8.63;;;;;;;6.80;93.63;99521.41;4987479;28;20030;-78
2022/01/04 07:42:49;;;;;;;15.73;8.25;;;;;;;6.77;93.07;99516.25;4978108;28;20030;-72
2022/01/04 07:45:15;;;;;;;18.75;7.72;;;;;;;6.75;93.46;99523.59;4968369;28;20454;-79
2022/01/04 07:47:41;;;;;;;17.77;9.13;;;;;;;6.73;93.55;99535.53;4980211;28;20070;-74
2022/01/04 07:50:08;;;;;;;16.60;8.77;;;;;;;6.70;93.97;99544.72;4978365;28;20072;-75
2022/01/04 07:52:34;;;;;;;21.77;8.95;;;;;;;6.69;93.72;99544.84;4983594;28;20379;-74
2022/01/04 07:55:00;;;;;;;18.88;9.05;;;;;;;6.70;93.27;99558.22;4980394;28;20043;-78
2022/01/04 07:57:25;;;;;;;20.23;9.98;;;;;;;6.70;93.91;99560.06;4983501;28;20548;-76
2022/01/04 07:59:51;;;;;;;18.35;8.40;;;;;;;6.73;94.18;99566.09;4979743;28;20027;-72
2022/01/04 08:02:16;;;;;;;21.25;9.52;;;;;;;6.75;93.75;99560.56;4978496;28;20030;-78
2022/01/04 08:04:42;;;;;;;18.50;9.00;;;;;;;6.77;93.58;99562.19;4987056;28;20022;-75
2022/01/04 08:07:07;;;;;;;17.08;9.32;;;;;;;6.76;93.75;99543.38;4977087;28;20074;-75
2022/01/04 08:09:32;;;;;;;24.05;10.70;;;;;;;6.80;93.44;99552.97;4986263;28;20427;-78
2022/01/04 08:11:58;;;;;;;26.05;10.30;;;;;;;6.79;93.54;99543.16;4987891;28;20052;-72
2022/01/04 08:14:23;;;;;;;22.02;11.57;;;;;;;6.81;93.53;99541.19;4983436;28;20186;-78
2022/01/04 08:16:48;;;;;;;20.95;9.60;;;;;;;6.82;93.60;99542.91;4987032;28;20046;-74
2022/01/04 08:19:14;;;;;;;19.60;9.68;;;;;;;6.84;93.53;99549.91;4982533;28;20486;-75
2022/01/04 08:21:39;;;;;;;21.98;10.82;;;;;;;6.84;93.66;99551.75;4986561;28;20018;-79
2022/01/04 08:24:05;;;;;;;24.20;10.75;;;;;;;6.86;93.63;99555.22;4981187;28;20262;-75
2022/01/04 08:26:30;;;;;;;24.80;11.48;;;;;;;6.86;93.59;99557.91;4973395;28;20085;-77
2022/01/04 08:28:56;;;;;;;20.08;10.10;;;;;;;6.86;93.93;99549.81;4973254;28;20037;-77
2022/01/04 08:31:21;;;;;;;25.48;11.43;;;;;;;6.85;93.58;99553.47;4969783;28;20030;-75
2022/01/04 08:33:47;;;;;;;21.25;11.07;;;;;;;6.89;93.70;99557.66;4977270;28;20026;-77
2022/01/04 08:36:12;;;;;;;25.55;11.27;;;;;;;6.88;93.27;99556.81;4985412;28;20108;-75
2022/01/04 08:38:39;;;;;;;21.50;9.93;;;;;;;6.89;93.28;99545.00;4973384;28;20022;-76
2022/01/04 08:41:05;;;;;;;24.70;10.40;;;;;;;6.92;93.35;99561.97;4975296;28;20049;-78
2022/01/04 08:43:30;;;;;;;20.70;10.73;;;;;;;6.92;93.35;99575.50;4980484;28;20034;-75
2022/01/04 08:45:55;;;;;;;25.83;10.73;;;;;;;6.94;93.25;99592.44;4986088;28;20022;-78
2022/01/04 08:48:21;;;;;;;25.17;11.63;;;;;;;6.95;93.15;99591.47;4976082;28;20027;-78
2022/01/04 08:50:46;;;;;;;22.42;12.10;;;;;;;6.95;93.30;99575.25;4986435;28;20077;-77
2022/01/04 08:53:13;;;;;;;23.52;12.13;;;;;;;6.96;93.00;99585.97;4985322;28;20019;-75
2022/01/04 08:55:39;;;;;;;21.85;10.85;;;;;;;6.98;93.53;99599.34;4981968;28;20501;-75
2022/01/04 08:58:05;;;;;;;24.75;10.95;;;;;;;6.96;93.44;99585.97;4983406;28;20022;-75
2022/01/04 09:00:30;;;;;;;22.17;10.73;;;;;;;7.00;93.32;99595.56;4978640;28;20041;-72
2022/01/04 09:02:55;;;;;;;28.13;12.07;;;;;;;7.01;93.47;99601.81;4977085;28;20030;-76
2022/01/04 09:05:20;;;;;;;23.45;10.82;;;;;;;7.02;93.35;99596.28;4986438;28;20030;-75
2022/01/04 09:07:46;;;;;;;23.17;11.07;;;;;;;7.02;93.43;99577.34;4982784;28;20402;-75
2022/01/04 09:10:11;;;;;;;25.38;11.65;;;;;;;7.06;93.42;99578.84;4989752;28;20034;-76
2022/01/04 09:12:53;;;;;;;26.23;12.10;;;;;;;7.09;93.15;99581.31;4982751;28;20026;-78
2022/01/04 09:15:32;;;;;;;21.60;10.70;;;;;;;7.12;93.24;99580.19;4980141;28;20042;-73
2022/01/04 09:20:47;;;;;;;22.70;11.68;;;;;;;7.17;93.03;99578.00;4983790;28;20510;-75
2022/01/04 09:23:15;;;;;;;25.25;11.60;;;;;;;7.20;92.96;99572.34;4981649;28;20030;-78
2022/01/04 09:25:41;;;;;;;25.50;12.30;;;;;;;7.20;92.78;99571.50;4977663;28;20041;-72
2022/01/04 09:28:07;;;;;;;24.33;11.52;;;;;;;7.23;92.42;99573.94;4981200;28;20038;-78
2022/01/04 09:30:32;;;;;;;25.10;12.13;;;;;;;7.24;92.38;99586.50;4981591;28;20386;-75
2022/01/04 09:32:59;;;;;;;23.25;11.43;;;;;;;7.25;92.49;99596.34;4976561;28;20073;-72
2022/01/04 09:35:24;;;;;;;25.30;12.48;;;;;;;7.25;92.15;99599.91;4986712;28;20523;-75
2022/01/04 09:37:50;;;;;;;26.50;13.23;;;;;;;7.28;91.88;99604.22;4982355;28;20084;-75
2022/01/04 09:40:15;;;;;;;25.90;11.85;;;;;;;7.26;92.56;99601.63;4968847;28;20514;-78
2022/01/04 09:42:42;;;;;;;26.83;13.35;;;;;;;7.27;92.19;99600.63;4975342;28;20050;-73
2022/01/04 09:45:08;;;;;;;25.63;13.18;;;;;;;7.28;92.32;99588.84;4975858;28;20053;-75
2022/01/04 09:47:33;;;;;;;25.23;11.95;;;;;;;7.26;92.21;99593.50;4985090;28;20030;-75
2022/01/04 09:49:59;;;;;;;26.13;12.43;;;;;;;7.22;92.18;99586.59;4988866;28;20395;-78
2022/01/04 09:52:24;;;;;;;24.30;12.38;;;;;;;7.29;91.96;99600.53;4985480;28;20483;-75
2022/01/04 09:54:52;;;;;;;32.08;13.27;;;;;;;7.26;92.07;99596.19;4990007;28;20447;-78
2022/01/04 09:57:18;;;;;;;25.80;13.07;;;;;;;7.30;92.32;99586.88;4983695;28;20113;-75
2022/01/04 09:59:44;;;;;;;27.75;13.35;;;;;;;7.31;92.00;99582.31;4982950;28;20129;-75
2022/01/04 10:02:20;;;;;;;26.27;13.88;;;;;;;7.32;92.03;99584.91;4976929;28;20034;-75
2022/01/04 10:04:46;;;;;;;36.58;15.40;;;;;;;7.33;92.09;99580.38;4975508;28;20054;-75
2022/01/04 10:07:12;;;;;;;32.78;14.40;;;;;;;7.34;91.71;99577.53;4979777;28;20054;-72
2022/01/04 10:09:45;;;;;;;29.52;14.35;;;;;;;7.36;92.01;99580.97;4976928;28;20030;-71
2022/01/04 10:12:13;;;;;;;35.97;14.25;;;;;;;7.39;91.84;99582.56;4988418;28;20030;-75
2022/01/04 10:14:41;;;;;;;38.17;15.00;;;;;;;7.40;92.10;99576.16;4987519;28;20045;-73
2022/01/04 10:17:10;;;;;;;30.65;14.00;;;;;;;7.46;92.06;99573.00;4981768;28;20030;-78
2022/01/04 10:19:38;;;;;;;31.58;15.32;;;;;;;7.49;92.18;99559.19;4988797;28;20081;-75
2022/01/04 10:22:27;;;;;;;28.08;14.32;;;;;;;7.55;91.72;99558.69;4985617;28;20045;-75
2022/01/04 10:25:02;;;;;;;33.70;13.90;;;;;;;7.58;91.33;99557.59;4984668;28;20030;-75
2022/01/04 10:27:39;;;;;;;34.40;15.40;;;;;;;7.59;91.14;99548.50;4981521;28;20038;-72
2022/01/04 10:30:25;;;;;;;34.90;15.32;;;;;;;7.61;91.80;99551.94;4986709;28;20347;-78
2022/01/04 10:32:54;;;;;;;35.95;15.05;;;;;;;7.64;91.79;99555.25;4978876;28;20402;-71
2022/01/04 10:35:37;;;;;;;33.85;15.10;;;;;;;7.70;91.33;99553.06;4988984;28;20076;-75
2022/01/04 10:38:12;;;;;;;33.92;15.48;;;;;;;7.74;91.56;99536.44;4978092;28;20035;-76
2022/01/04 10:40:39;;;;;;;31.88;15.73;;;;;;;7.78;91.07;99537.03;4976845;28;20036;-75
2022/01/04 10:43:15;;;;;;;36.90;15.23;;;;;;;7.82;91.21;99547.47;4972137;28;20420;-71
2022/01/04 10:45:45;;;;;;;33.22;15.90;;;;;;;7.85;91.08;99554.50;4976885;28;20125;-74
2022/01/04 10:48:14;;;;;;;36.42;16.40;;;;;;;7.91;91.14;99548.56;4982193;28;20035;-78
2022/01/04 10:50:40;;;;;;;32.45;14.85;;;;;;;7.95;90.30;99544.63;4984902;28;20088;-71
2022/01/04 10:53:14;;;;;;;35.40;16.77;;;;;;;7.97;90.55;99534.53;4987572;28;20034;-75
2022/01/04 10:55:39;;;;;;;33.92;15.88;;;;;;;8.00;90.85;99541.53;4985444;28;20450;-75
2022/01/04 10:58:04;;;;;;;31.92;15.40;;;;;;;8.00;90.52;99545.09;4977747;28;20026;-75
2022/01/04 11:00:31;;;;;;;35.58;16.38;;;;;;;8.01;90.15;99545.97;4986311;28;20495;-78
2022/01/04 11:02:58;;;;;;;37.28;15.90;;;;;;;8.00;90.32;99545.09;4980272;28;20518;-78
2022/01/04 11:05:25;;;;;;;43.15;16.63;;;;;;;8.04;90.42;99534.88;4988501;28;20053;-78
2022/01/04 11:08:05;;;;;;;30.80;15.35;;;;;;;8.07;90.77;99546.34;4980944;28;20026;-77
2022/01/04 11:10:35;;;;;;;36.72;16.80;;;;;;;8.05;90.41;99542.88;4983304;28;20057;-76
2022/01/04 11:13:01;;;;;;;30.90;15.77;;;;;;;8.06;90.49;99543.72;4978434;28;20141;-75
2022/01/04 11:15:28;;;;;;;40.40;17.90;;;;;;;8.04;90.42;99535.75;4987254;28;20399;-76
2022/01/04 11:17:56;;;;;;;36.38;17.75;;;;;;;8.03;90.73;99528.63;4983987;28;20085;-78
2022/01/04 11:20:21;;;;;;;33.65;16.13;;;;;;;8.02;90.33;99528.72;4987375;28;20046;-78
2022/01/04 11:22:48;;;;;;;32.13;17.27;;;;;;;7.97;91.29;99529.09;4988450;28;20062;-74
2022/01/04 11:25:17;;;;;;;40.47;17.55;;;;;;;7.95;91.02;99535.66;4980109;28;20034;-73
2022/01/04 11:27:43;;;;;;;38.45;16.30;;;;;;;7.91;90.91;99567.53;4986000;28;20451;-76
2022/01/04 11:30:17;;;;;;;15.13;6.40;;;;;;;7.79;87.38;99590.22;4985656;28;20030;-78
2022/01/04 11:32:48;;;;;;;6.43;3.63;;;;;;;7.60;86.41;99575.47;4977804;28;20026;-76
2022/01/04 11:35:20;;;;;;;4.82;2.55;;;;;;;7.43;86.48;99575.09;4987368;28;20026;-72
2022/01/04 11:37:57;;;;;;;4.10;1.85;;;;;;;7.31;87.73;99594.00;4984618;28;20455;-72
2022/01/04 11:40:35;;;;;;;4.82;1.60;;;;;;;7.16;87.64;99603.31;4986282;28;20479;-75